Terminal Aerodrome Forecast
Issued by NWS

Home | Current Version | Previous Version | Text Only | Print | Product List | Glossary On
Versions: 1 2 3 4 5 6 7 8 9 10 11 12 13
000
FTUS45 KSLC 211120
TAFENV
TAF
KENV 211120Z 2112/2212 34006KT P6SM SCT120 BKN200
     FM211600 09006KT P6SM SCT120
     FM220300 VRB03KT P6SM SKC
     FM220900 34006KT P6SM SKC=

USA.gov is the U.S. government's official web portal to all federal, state and local government web resources and services.